Time,TemperatureF,DewpointF,PressureIn,WindDirection,WindDirectionDegrees,WindSpeedMPH,WindSpeedGustMPH,Humidity,HourlyPrecipIn,Conditions,Clouds,dailyrainin,SoftwareType,DateUTC
2013-06-19 00:04:00,49.0,47.0,29.85,WNW,292,4.0,5.0,93,0.00,,,0.00,TxWx,2013-06-19 04:04:00,
2013-06-19 00:09:00,49.0,47.0,29.85,WSW,247,3.0,3.0,93,0.00,,,0.00,TxWx,2013-06-19 04:09:00,
2013-06-19 00:14:00,48.0,46.0,29.84,South,180,1.0,1.0,93,0.00,,,0.00,TxWx,2013-06-19 04:14:00,
2013-06-19 00:20:00,48.0,46.0,29.84,North,0,3.0,3.0,93,0.00,,,0.00,TxWx,2013-06-19 04:20:00,
2013-06-19 00:25:00,48.0,46.0,29.84,West,270,1.0,2.0,93,0.00,,,0.00,TxWx,2013-06-19 04:25:00,
2013-06-19 00:30:00,48.0,46.0,29.85,NW,315,3.0,3.0,93,0.00,,,0.00,TxWx,2013-06-19 04:30:00,
2013-06-19 00:35:00,48.0,46.0,29.85,WSW,247,1.0,2.0,93,0.00,,,0.00,TxWx,2013-06-19 04:35:00,
2013-06-19 00:40:00,48.0,46.0,29.85,SSW,202,1.0,1.0,93,0.00,,,0.00,TxWx,2013-06-19 04:40:00,
2013-06-19 00:45:00,47.0,45.0,29.85,SW,225,1.0,1.0,93,0.00,,,0.00,TxWx,2013-06-19 04:45:00,
2013-06-19 00:50:00,47.0,45.0,29.85,SSW,202,1.0,1.0,93,0.00,,,0.00,TxWx,2013-06-19 04:50:00,
2013-06-19 00:55:00,47.0,45.0,29.85,West,270,2.0,3.0,93,0.00,,,0.00,TxWx,2013-06-19 04:55:00,
2013-06-19 01:00:00,47.0,45.0,29.85,West,270,1.0,1.0,93,0.00,,,0.00,TxWx,2013-06-19 05:00:00,
2013-06-19 01:05:00,46.0,44.0,29.85,South,180,1.0,1.0,93,0.00,,,0.00,TxWx,2013-06-19 05:05:00,
2013-06-19 01:10:00,46.0,44.0,29.85,WSW,247,2.0,3.0,93,0.00,,,0.00,TxWx,2013-06-19 05:10:00,
2013-06-19 01:16:00,46.0,44.0,29.85,WSW,247,3.0,3.0,94,0.00,,,0.00,TxWx,2013-06-19 05:16:00,
2013-06-19 01:21:00,46.0,44.0,29.85,SSW,202,1.0,1.0,94,0.00,,,0.00,TxWx,2013-06-19 05:21:00,
2013-06-19 01:26:00,46.0,44.0,29.85,SSW,202,0.0,0.0,94,0.00,,,0.00,TxWx,2013-06-19 05:26:00,
2013-06-19 01:31:00,45.0,43.0,29.85,South,180,0.0,1.0,94,0.00,,,0.00,TxWx,2013-06-19 05:31:00,
2013-06-19 01:36:00,45.0,43.0,29.85,SW,225,1.0,2.0,94,0.00,,,0.00,TxWx,2013-06-19 05:36:00,
2013-06-19 01:41:00,45.0,44.0,29.85,West,270,3.0,3.0,95,0.00,,,0.00,TxWx,2013-06-19 05:41:00,
2013-06-19 01:46:00,45.0,44.0,29.85,SSW,202,1.0,3.0,95,0.00,,,0.00,TxWx,2013-06-19 05:46:00,
2013-06-19 01:51:00,45.0,44.0,29.84,SW,225,1.0,1.0,95,0.00,,,0.00,TxWx,2013-06-19 05:51:00,
2013-06-19 01:56:00,45.0,44.0,29.85,South,180,1.0,1.0,95,0.00,,,0.00,TxWx,2013-06-19 05:56:00,
2013-06-19 02:01:00,45.0,44.0,29.85,SSW,202,1.0,1.0,95,0.00,,,0.00,TxWx,2013-06-19 06:01:00,
2013-06-19 02:06:00,45.0,44.0,29.85,West,270,5.0,5.0,95,0.00,,,0.00,TxWx,2013-06-19 06:06:00,
2013-06-19 02:12:00,45.0,44.0,29.85,West,270,3.0,4.0,96,0.00,,,0.00,TxWx,2013-06-19 06:12:00,
2013-06-19 02:17:00,45.0,44.0,29.85,West,270,3.0,3.0,96,0.00,,,0.00,TxWx,2013-06-19 06:17:00,
2013-06-19 02:22:00,45.0,44.0,29.85,WSW,247,3.0,3.0,96,0.00,,,0.00,TxWx,2013-06-19 06:22:00,
2013-06-19 02:27:00,45.0,44.0,29.85,SW,225,2.0,3.0,96,0.00,,,0.00,TxWx,2013-06-19 06:27:00,
2013-06-19 02:32:00,45.0,44.0,29.85,West,270,3.0,3.0,96,0.00,,,0.00,TxWx,2013-06-19 06:32:00,
2013-06-19 02:37:00,44.0,43.0,29.85,WSW,247,1.0,1.0,96,0.00,,,0.00,TxWx,2013-06-19 06:37:00,
2013-06-19 02:42:00,44.0,43.0,29.85,West,270,3.0,4.0,96,0.00,,,0.00,TxWx,2013-06-19 06:42:00,
2013-06-19 02:47:00,44.0,43.0,29.85,West,270,3.0,3.0,96,0.00,,,0.00,TxWx,2013-06-19 06:47:00,
2013-06-19 02:52:00,44.0,43.0,29.85,West,270,3.0,4.0,96,0.00,,,0.00,TxWx,2013-06-19 06:52:00,
2013-06-19 02:57:00,44.0,43.0,29.85,WSW,247,2.0,3.0,96,0.00,,,0.00,TxWx,2013-06-19 06:57:00,
2013-06-19 03:02:00,44.0,43.0,29.85,WSW,247,3.0,4.0,97,0.00,,,0.00,TxWx,2013-06-19 07:02:00,
2013-06-19 03:08:00,44.0,43.0,29.85,West,270,3.0,3.0,97,0.00,,,0.00,TxWx,2013-06-19 07:08:00,
2013-06-19 03:13:00,44.0,43.0,29.85,West,270,4.0,5.0,97,0.00,,,0.00,TxWx,2013-06-19 07:13:00,
2013-06-19 03:18:00,44.0,43.0,29.85,WSW,247,1.0,1.0,97,0.00,,,0.00,TxWx,2013-06-19 07:18:00,
2013-06-19 03:23:00,44.0,43.0,29.86,WNW,292,1.0,1.0,97,0.00,,,0.00,TxWx,2013-06-19 07:23:00,
2013-06-19 03:28:00,43.0,42.0,29.85,SSW,202,1.0,1.0,96,0.00,,,0.00,TxWx,2013-06-19 07:28:00,
2013-06-19 03:33:00,43.0,42.0,29.86,South,180,1.0,1.0,96,0.00,,,0.00,TxWx,2013-06-19 07:33:00,
2013-06-19 03:38:00,43.0,42.0,29.86,SSW,202,1.0,1.0,96,0.00,,,0.00,TxWx,2013-06-19 07:38:00,
2013-06-19 03:43:00,42.0,41.0,29.86,NE,45,1.0,1.0,96,0.00,,,0.00,TxWx,2013-06-19 07:43:00,
2013-06-19 03:48:00,42.0,41.0,29.86,SSW,202,0.0,0.0,96,0.00,,,0.00,TxWx,2013-06-19 07:48:00,
2013-06-19 03:53:00,42.0,41.0,29.86,SSW,202,0.0,1.0,96,0.00,,,0.00,TxWx,2013-06-19 07:53:00,
2013-06-19 03:59:00,42.0,41.0,29.86,WNW,292,1.0,1.0,96,0.00,,,0.00,TxWx,2013-06-19 07:59:00,
2013-06-19 04:04:00,42.0,41.0,29.86,South,180,0.0,1.0,97,0.00,,,0.00,TxWx,2013-06-19 08:04:00,
2013-06-19 04:09:00,41.0,40.0,29.87,South,180,0.0,0.0,97,0.00,,,0.00,TxWx,2013-06-19 08:09:00,
2013-06-19 04:14:00,41.0,40.0,29.87,SSW,202,0.0,0.0,97,0.00,,,0.00,TxWx,2013-06-19 08:14:00,
2013-06-19 04:19:00,41.0,40.0,29.87,North,0,2.0,3.0,97,0.00,,,0.00,TxWx,2013-06-19 08:19:00,
2013-06-19 04:24:00,41.0,40.0,29.87,SSW,202,0.0,0.0,97,0.00,,,0.00,TxWx,2013-06-19 08:24:00,
2013-06-19 04:29:00,41.0,40.0,29.88,South,180,0.0,1.0,97,0.00,,,0.00,TxWx,2013-06-19 08:29:00,
2013-06-19 04:34:00,41.0,40.0,29.88,South,180,0.0,0.0,97,0.00,,,0.00,TxWx,2013-06-19 08:34:00,
2013-06-19 04:39:00,40.0,39.0,29.88,SW,225,2.0,2.0,97,0.00,,,0.00,TxWx,2013-06-19 08:39:00,
2013-06-19 04:44:00,40.0,39.0,29.88,SSW,202,2.0,3.0,97,0.00,,,0.00,TxWx,2013-06-19 08:44:00,
2013-06-19 04:49:00,40.0,39.0,29.88,SSW,202,2.0,2.0,97,0.00,,,0.00,TxWx,2013-06-19 08:49:00,
2013-06-19 04:55:00,40.0,39.0,29.88,SSW,202,0.0,0.0,97,0.00,,,0.00,TxWx,2013-06-19 08:55:00,
2013-06-19 05:00:00,40.0,39.0,29.88,South,180,0.0,0.0,97,0.00,,,0.00,TxWx,2013-06-19 09:00:00,
2013-06-19 05:05:00,40.0,39.0,29.88,SW,225,1.0,2.0,97,0.00,,,0.00,TxWx,2013-06-19 09:05:00,
2013-06-19 05:10:00,40.0,39.0,29.88,South,180,0.0,0.0,97,0.00,,,0.00,TxWx,2013-06-19 09:10:00,
2013-06-19 05:15:00,39.0,38.0,29.88,South,180,0.0,0.0,97,0.00,,,0.00,TxWx,2013-06-19 09:15:00,
2013-06-19 05:20:00,39.0,38.0,29.88,SSW,202,0.0,0.0,97,0.00,,,0.00,TxWx,2013-06-19 09:20:00,
2013-06-19 05:25:00,39.0,38.0,29.89,South,180,0.0,0.0,97,0.00,,,0.00,TxWx,2013-06-19 09:25:00,
2013-06-19 05:30:00,39.0,38.0,29.89,South,180,0.0,0.0,97,0.00,,,0.00,TxWx,2013-06-19 09:30:00,
2013-06-19 05:35:00,39.0,38.0,29.89,South,180,0.0,0.0,97,0.00,,,0.00,TxWx,2013-06-19 09:35:00,
2013-06-19 05:40:00,38.0,37.0,29.89,South,180,1.0,1.0,97,0.00,,,0.00,TxWx,2013-06-19 09:40:00,
2013-06-19 05:46:00,38.0,37.0,29.89,SSW,202,0.0,0.0,97,0.00,,,0.00,TxWx,2013-06-19 09:46:00,
2013-06-19 05:51:00,38.0,37.0,29.89,SSW,202,0.0,0.0,97,0.00,,,0.00,TxWx,2013-06-19 09:51:00,
2013-06-19 05:56:00,39.0,38.0,29.89,SSW,202,1.0,1.0,98,0.00,,,0.00,TxWx,2013-06-19 09:56:00,
2013-06-19 06:01:00,39.0,38.0,29.89,West,270,1.0,1.0,98,0.00,,,0.00,TxWx,2013-06-19 10:01:00,
2013-06-19 06:06:00,39.0,38.0,29.89,SSW,202,1.0,1.0,98,0.00,,,0.00,TxWx,2013-06-19 10:06:00,
2013-06-19 06:11:00,39.0,38.0,29.90,SSW,202,0.0,0.0,98,0.00,,,0.00,TxWx,2013-06-19 10:11:00,
2013-06-19 06:16:00,39.0,38.0,29.90,SW,225,1.0,1.0,98,0.00,,,0.00,TxWx,2013-06-19 10:16:00,
2013-06-19 06:21:00,39.0,38.0,29.90,SSW,202,0.0,0.0,98,0.00,,,0.00,TxWx,2013-06-19 10:21:00,
2013-06-19 06:26:00,40.0,39.0,29.90,SSW,202,0.0,0.0,98,0.00,,,0.00,TxWx,2013-06-19 10:26:00,
2013-06-19 06:31:00,40.0,40.0,29.90,SSW,202,0.0,0.0,99,0.00,,,0.00,TxWx,2013-06-19 10:31:00,
2013-06-19 06:36:00,41.0,41.0,29.90,SSE,157,0.0,0.0,99,0.00,,,0.00,TxWx,2013-06-19 10:36:00,
2013-06-19 06:42:00,41.0,41.0,29.90,South,180,1.0,1.0,99,0.00,,,0.00,TxWx,2013-06-19 10:42:00,
2013-06-19 06:47:00,42.0,42.0,29.90,SSW,202,0.0,0.0,99,0.00,,,0.00,TxWx,2013-06-19 10:47:00,
2013-06-19 06:52:00,42.0,42.0,29.90,SSE,157,1.0,2.0,99,0.00,,,0.00,TxWx,2013-06-19 10:52:00,
2013-06-19 06:57:00,42.0,42.0,29.90,SSE,157,1.0,1.0,99,0.00,,,0.00,TxWx,2013-06-19 10:57:00,
2013-06-19 07:02:00,43.0,43.0,29.90,SE,135,1.0,1.0,99,0.00,,,0.00,TxWx,2013-06-19 11:02:00,
2013-06-19 07:07:00,43.0,43.0,29.90,South,180,1.0,1.0,99,0.00,,,0.00,TxWx,2013-06-19 11:07:00,
2013-06-19 07:12:00,44.0,44.0,29.90,SSW,202,0.0,0.0,99,0.00,,,0.00,TxWx,2013-06-19 11:12:00,
2013-06-19 07:17:00,44.0,44.0,29.90,SSW,202,0.0,0.0,99,0.00,,,0.00,TxWx,2013-06-19 11:17:00,
2013-06-19 07:22:00,44.0,44.0,29.90,SSW,202,0.0,0.0,99,0.00,,,0.00,TxWx,2013-06-19 11:22:00,
2013-06-19 07:27:00,45.0,45.0,29.90,SSW,202,0.0,1.0,100,0.00,,,0.00,TxWx,2013-06-19 11:27:00,
2013-06-19 07:32:00,46.0,46.0,29.91,SSW,202,0.0,1.0,100,0.00,,,0.00,TxWx,2013-06-19 11:32:00,
2013-06-19 07:38:00,46.0,46.0,29.91,WNW,292,1.0,1.0,100,0.00,,,0.00,TxWx,2013-06-19 11:38:00,
2013-06-19 07:43:00,47.0,47.0,29.91,WNW,292,4.0,4.0,100,0.00,,,0.00,TxWx,2013-06-19 11:43:00,
2013-06-19 07:48:00,47.0,47.0,29.91,SW,225,3.0,3.0,99,0.00,,,0.00,TxWx,2013-06-19 11:48:00,
2013-06-19 07:53:00,47.0,46.0,29.91,South,180,1.0,3.0,98,0.00,,,0.00,TxWx,2013-06-19 11:53:00,
2013-06-19 07:58:00,48.0,47.0,29.91,SW,225,1.0,2.0,97,0.00,,,0.00,TxWx,2013-06-19 11:58:00,
2013-06-19 08:03:00,48.0,47.0,29.91,West,270,2.0,3.0,95,0.00,,,0.00,TxWx,2013-06-19 12:03:00,
2013-06-19 08:08:00,49.0,47.0,29.92,West,270,2.0,3.0,93,0.00,,,0.00,TxWx,2013-06-19 12:08:00,
2013-06-19 08:13:00,49.0,46.0,29.91,South,180,2.0,3.0,91,0.00,,,0.00,TxWx,2013-06-19 12:13:00,
2013-06-19 08:18:00,50.0,46.0,29.92,NW,315,3.0,3.0,88,0.00,,,0.00,TxWx,2013-06-19 12:18:00,
2013-06-19 08:24:00,50.0,46.0,29.92,WNW,292,3.0,3.0,85,0.00,,,0.00,TxWx,2013-06-19 12:24:00,
2013-06-19 08:29:00,50.0,45.0,29.91,West,270,3.0,4.0,82,0.00,,,0.00,TxWx,2013-06-19 12:29:00,
2013-06-19 08:34:00,51.0,45.0,29.92,WNW,292,3.0,3.0,81,0.00,,,0.00,TxWx,2013-06-19 12:34:00,
2013-06-19 08:39:00,51.0,44.0,29.92,West,270,2.0,2.0,77,0.00,,,0.00,TxWx,2013-06-19 12:39:00,
2013-06-19 08:44:00,52.0,44.0,29.92,SW,225,7.0,8.0,75,0.00,,,0.00,TxWx,2013-06-19 12:44:00,
2013-06-19 08:49:00,52.0,44.0,29.92,WSW,247,1.0,2.0,73,0.00,,,0.00,TxWx,2013-06-19 12:49:00,
2013-06-19 08:54:00,52.0,42.0,29.92,WSW,247,5.0,5.0,70,0.00,,,0.00,TxWx,2013-06-19 12:54:00,
2013-06-19 08:59:00,53.0,43.0,29.92,SW,225,2.0,3.0,69,0.00,,,0.00,TxWx,2013-06-19 12:59:00,
2013-06-19 09:04:00,54.0,43.0,29.92,NW,315,3.0,3.0,68,0.00,,,0.00,TxWx,2013-06-19 13:04:00,
2013-06-19 09:09:00,54.0,42.0,29.92,SW,225,3.0,3.0,64,0.00,,,0.00,TxWx,2013-06-19 13:09:00,
2013-06-19 09:14:00,54.0,40.0,29.92,North,0,5.0,5.0,59,0.00,,,0.00,TxWx,2013-06-19 13:14:00,
2013-06-19 09:20:00,54.0,38.0,29.92,WNW,292,4.0,6.0,54,0.00,,,0.00,TxWx,2013-06-19 13:20:00,
2013-06-19 09:25:00,55.0,38.0,29.92,NW,315,6.0,7.0,53,0.00,,,0.00,TxWx,2013-06-19 13:25:00,
2013-06-19 09:30:00,55.0,38.0,29.92,ENE,67,5.0,6.0,54,0.00,,,0.00,TxWx,2013-06-19 13:30:00,
2013-06-19 09:35:00,55.0,38.0,29.92,NNW,337,5.0,6.0,54,0.00,,,0.00,TxWx,2013-06-19 13:35:00,
2013-06-19 09:40:00,55.0,36.0,29.92,West,270,5.0,7.0,49,0.00,,,0.00,TxWx,2013-06-19 13:40:00,
2013-06-19 09:45:00,55.0,36.0,29.92,North,0,6.0,6.0,50,0.00,,,0.00,TxWx,2013-06-19 13:45:00,
2013-06-19 09:50:00,55.0,36.0,29.92,North,0,8.0,9.0,49,0.00,,,0.00,TxWx,2013-06-19 13:50:00,
2013-06-19 09:55:00,55.0,36.0,29.93,West,270,6.0,6.0,50,0.00,,,0.00,TxWx,2013-06-19 13:55:00,
2013-06-19 10:00:00,56.0,37.0,29.92,WNW,292,7.0,8.0,49,0.00,,,0.00,TxWx,2013-06-19 14:00:00,
2013-06-19 10:05:00,56.0,37.0,29.92,WNW,292,3.0,3.0,49,0.00,,,0.00,TxWx,2013-06-19 14:05:00,
2013-06-19 10:11:00,56.0,36.0,29.92,North,0,7.0,9.0,47,0.00,,,0.00,TxWx,2013-06-19 14:11:00,
2013-06-19 10:16:00,57.0,37.0,29.92,WNW,292,3.0,3.0,48,0.00,,,0.00,TxWx,2013-06-19 14:16:00,
2013-06-19 10:21:00,57.0,37.0,29.93,North,0,5.0,6.0,47,0.00,,,0.00,TxWx,2013-06-19 14:21:00,
2013-06-19 10:26:00,58.0,38.0,29.92,NW,315,4.0,4.0,47,0.00,,,0.00,TxWx,2013-06-19 14:26:00,
2013-06-19 10:31:00,58.0,37.0,29.93,SE,135,2.0,4.0,46,0.00,,,0.00,TxWx,2013-06-19 14:31:00,
2013-06-19 10:36:00,58.0,37.0,29.92,WNW,292,3.0,3.0,46,0.00,,,0.00,TxWx,2013-06-19 14:36:00,
2013-06-19 10:41:00,58.0,38.0,29.92,North,0,3.0,4.0,47,0.00,,,0.00,TxWx,2013-06-19 14:41:00,
2013-06-19 10:46:00,58.0,38.0,29.93,ESE,112,3.0,4.0,47,0.00,,,0.00,TxWx,2013-06-19 14:46:00,
2013-06-19 10:51:00,59.0,39.0,29.93,NW,315,2.0,3.0,47,0.00,,,0.00,TxWx,2013-06-19 14:51:00,
2013-06-19 10:56:00,59.0,38.0,29.93,SSW,202,1.0,2.0,45,0.00,,,0.00,TxWx,2013-06-19 14:56:00,
2013-06-19 11:02:00,59.0,37.0,29.93,WNW,292,6.0,8.0,44,0.00,,,0.00,TxWx,2013-06-19 15:02:00,
2013-06-19 11:07:00,59.0,37.0,29.93,WNW,292,4.0,4.0,45,0.00,,,0.00,TxWx,2013-06-19 15:07:00,
2013-06-19 11:12:00,59.0,36.0,29.93,WSW,247,3.0,3.0,43,0.00,,,0.00,TxWx,2013-06-19 15:12:00,
2013-06-19 11:17:00,59.0,36.0,29.94,NW,315,6.0,6.0,42,0.00,,,0.00,TxWx,2013-06-19 15:17:00,
2013-06-19 11:22:00,59.0,36.0,29.94,West,270,5.0,5.0,43,0.00,,,0.00,TxWx,2013-06-19 15:22:00,
2013-06-19 11:27:00,60.0,37.0,29.94,WNW,292,4.0,4.0,42,0.00,,,0.00,TxWx,2013-06-19 15:27:00,
2013-06-19 11:32:00,60.0,37.0,29.93,North,0,4.0,5.0,42,0.00,,,0.00,TxWx,2013-06-19 15:32:00,
2013-06-19 11:37:00,59.0,35.0,29.94,NW,315,4.0,8.0,41,0.00,,,0.00,TxWx,2013-06-19 15:37:00,
2013-06-19 11:42:00,59.0,36.0,29.94,ENE,67,8.0,8.0,42,0.00,,,0.00,TxWx,2013-06-19 15:42:00,
2013-06-19 11:47:00,59.0,36.0,29.94,NNW,337,6.0,6.0,43,0.00,,,0.00,TxWx,2013-06-19 15:47:00,
2013-06-19 11:53:00,60.0,37.0,29.94,ESE,112,2.0,4.0,43,0.00,,,0.00,TxWx,2013-06-19 15:53:00,
2013-06-19 11:58:00,60.0,36.0,29.93,SSW,202,3.0,5.0,41,0.00,,,0.00,TxWx,2013-06-19 15:58:00,
2013-06-19 12:03:00,61.0,37.0,29.93,North,0,3.0,5.0,41,0.00,,,0.00,TxWx,2013-06-19 16:03:00,
2013-06-19 12:08:00,61.0,36.0,29.93,East,90,3.0,4.0,40,0.00,,,0.00,TxWx,2013-06-19 16:08:00,
2013-06-19 12:13:00,61.0,36.0,29.93,ESE,112,3.0,5.0,40,0.00,,,0.00,TxWx,2013-06-19 16:13:00,
2013-06-19 12:18:00,61.0,36.0,29.93,SSW,202,2.0,2.0,40,0.00,,,0.00,TxWx,2013-06-19 16:18:00,
2013-06-19 12:23:00,61.0,37.0,29.93,WSW,247,5.0,6.0,41,0.00,,,0.00,TxWx,2013-06-19 16:23:00,
2013-06-19 12:28:00,62.0,38.0,29.93,SW,225,1.0,3.0,41,0.00,,,0.00,TxWx,2013-06-19 16:28:00,
2013-06-19 12:33:00,62.0,35.0,29.93,ESE,112,5.0,5.0,37,0.00,,,0.00,TxWx,2013-06-19 16:33:00,
2013-06-19 12:38:00,62.0,35.0,29.93,SE,135,6.0,6.0,37,0.00,,,0.00,TxWx,2013-06-19 16:38:00,
2013-06-19 12:44:00,63.0,37.0,29.93,WNW,292,2.0,3.0,39,0.00,,,0.00,TxWx,2013-06-19 16:44:00,
2013-06-19 12:49:00,63.0,37.0,29.93,South,180,3.0,3.0,38,0.00,,,0.00,TxWx,2013-06-19 16:49:00,
2013-06-19 12:54:00,63.0,36.0,29.93,West,270,3.0,4.0,37,0.00,,,0.00,TxWx,2013-06-19 16:54:00,
2013-06-19 12:59:00,63.0,36.0,29.93,WNW,292,6.0,6.0,37,0.00,,,0.00,TxWx,2013-06-19 16:59:00,
2013-06-19 13:04:00,63.0,36.0,29.93,WNW,292,6.0,6.0,37,0.00,,,0.00,TxWx,2013-06-19 17:04:00,
2013-06-19 13:09:00,63.0,35.0,29.93,West,270,6.0,7.0,36,0.00,,,0.00,TxWx,2013-06-19 17:09:00,
2013-06-19 13:14:00,63.0,37.0,29.93,ESE,112,2.0,3.0,38,0.00,,,0.00,TxWx,2013-06-19 17:14:00,
2013-06-19 13:19:00,64.0,37.0,29.93,SSE,157,2.0,2.0,38,0.00,,,0.00,TxWx,2013-06-19 17:19:00,
2013-06-19 13:24:00,64.0,36.0,29.93,SE,135,2.0,2.0,36,0.00,,,0.00,TxWx,2013-06-19 17:24:00,
2013-06-19 13:29:00,64.0,35.0,29.93,SE,135,5.0,5.0,34,0.00,,,0.00,TxWx,2013-06-19 17:29:00,
2013-06-19 13:35:00,63.0,34.0,29.93,NNW,337,6.0,6.0,34,0.00,,,0.00,TxWx,2013-06-19 17:35:00,
2013-06-19 13:40:00,63.0,33.0,29.93,SE,135,5.0,6.0,33,0.00,,,0.00,TxWx,2013-06-19 17:40:00,
2013-06-19 13:45:00,63.0,33.0,29.93,North,0,7.0,8.0,33,0.00,,,0.00,TxWx,2013-06-19 17:45:00,
2013-06-19 13:50:00,63.0,34.0,29.92,ESE,112,2.0,2.0,34,0.00,,,0.00,TxWx,2013-06-19 17:50:00,
2013-06-19 13:55:00,64.0,36.0,29.93,WNW,292,3.0,5.0,36,0.00,,,0.00,TxWx,2013-06-19 17:55:00,
2013-06-19 14:00:00,64.0,35.0,29.93,West,270,9.0,9.0,34,0.00,,,0.00,TxWx,2013-06-19 18:00:00,
2013-06-19 14:05:00,64.0,34.0,29.92,NW,315,2.0,2.0,33,0.00,,,0.00,TxWx,2013-06-19 18:05:00,
2013-06-19 14:10:00,64.0,33.0,29.92,West,270,5.0,5.0,32,0.00,,,0.00,TxWx,2013-06-19 18:10:00,
2013-06-19 14:15:00,64.0,33.0,29.93,NNE,22,6.0,8.0,32,0.00,,,0.00,TxWx,2013-06-19 18:15:00,
2013-06-19 14:20:00,64.0,35.0,29.93,North,0,6.0,6.0,34,0.00,,,0.00,TxWx,2013-06-19 18:20:00,
2013-06-19 14:26:00,64.0,35.0,29.93,WNW,292,3.0,3.0,34,0.00,,,0.00,TxWx,2013-06-19 18:26:00,
2013-06-19 14:31:00,65.0,38.0,29.92,NNW,337,5.0,6.0,38,0.00,,,0.00,TxWx,2013-06-19 18:31:00,
2013-06-19 14:36:00,64.0,36.0,29.92,SE,135,4.0,4.0,36,0.00,,,0.00,TxWx,2013-06-19 18:36:00,
2013-06-19 14:41:00,64.0,37.0,29.92,West,270,5.0,5.0,37,0.00,,,0.00,TxWx,2013-06-19 18:41:00,
2013-06-19 14:46:00,65.0,38.0,29.92,SW,225,6.0,7.0,37,0.00,,,0.00,TxWx,2013-06-19 18:46:00,
2013-06-19 14:51:00,65.0,38.0,29.92,SSW,202,7.0,9.0,38,0.00,,,0.00,TxWx,2013-06-19 18:51:00,
2013-06-19 14:56:00,65.0,38.0,29.92,West,270,6.0,6.0,37,0.00,,,0.00,TxWx,2013-06-19 18:56:00,
2013-06-19 15:00:00,44.0,40.0,30.04,SSW,202,0.0,0.0,86,0.00,,,0.00,TxWx,2013-06-19 19:00:00,
2013-06-19 15:01:00,65.0,39.0,29.92,West,270,4.0,10.0,38,0.00,,,0.00,TxWx,2013-06-19 19:01:00,
2013-06-19 15:02:00,44.0,40.0,30.04,SSW,202,0.0,0.0,86,0.00,,,0.00,TxWx,2013-06-19 19:02:00,
2013-06-19 15:03:00,44.0,40.0,30.04,SSW,202,0.0,0.0,86,0.00,,,0.00,TxWx,2013-06-19 19:03:00,
2013-06-19 15:06:00,65.0,38.0,29.92,WSW,247,5.0,5.0,37,0.00,,,0.00,TxWx,2013-06-19 19:06:00,
2013-06-19 15:11:00,65.0,37.0,29.92,NNW,337,7.0,10.0,36,0.00,,,0.00,TxWx,2013-06-19 19:11:00,
2013-06-19 15:16:00,66.0,38.0,29.92,NW,315,6.0,8.0,36,0.00,,,0.00,TxWx,2013-06-19 19:16:00,
2013-06-19 15:22:00,65.0,36.0,29.92,North,0,5.0,6.0,34,0.00,,,0.00,TxWx,2013-06-19 19:22:00,
2013-06-19 15:27:00,65.0,36.0,29.92,NE,45,3.0,3.0,34,0.00,,,0.00,TxWx,2013-06-19 19:27:00,
2013-06-19 15:32:00,65.0,37.0,29.92,SE,135,2.0,5.0,35,0.00,,,0.00,TxWx,2013-06-19 19:32:00,
2013-06-19 15:37:00,66.0,37.0,29.92,NNW,337,3.0,3.0,35,0.00,,,0.00,TxWx,2013-06-19 19:37:00,
2013-06-19 15:42:00,65.0,36.0,29.92,NW,315,10.0,10.0,35,0.00,,,0.00,TxWx,2013-06-19 19:42:00,
2013-06-19 15:47:00,66.0,38.0,29.92,South,180,5.0,6.0,36,0.00,,,0.00,TxWx,2013-06-19 19:47:00,
2013-06-19 15:52:00,65.0,36.0,29.92,NW,315,6.0,6.0,34,0.00,,,0.00,TxWx,2013-06-19 19:52:00,
2013-06-19 15:57:00,65.0,37.0,29.92,ESE,112,9.0,9.0,36,0.00,,,0.00,TxWx,2013-06-19 19:57:00,
2013-06-19 16:02:00,65.0,37.0,29.92,WSW,247,4.0,6.0,35,0.00,,,0.00,TxWx,2013-06-19 20:02:00,
2013-06-19 16:08:00,65.0,37.0,29.92,WSW,247,4.0,5.0,35,0.00,,,0.00,TxWx,2013-06-19 20:08:00,
2013-06-19 16:13:00,66.0,38.0,29.92,WNW,292,3.0,3.0,36,0.00,,,0.00,TxWx,2013-06-19 20:13:00,
2013-06-19 16:18:00,66.0,37.0,29.92,WNW,292,5.0,8.0,34,0.00,,,0.00,TxWx,2013-06-19 20:18:00,
2013-06-19 16:23:00,66.0,36.0,29.92,North,0,4.0,6.0,34,0.00,,,0.00,TxWx,2013-06-19 20:23:00,
2013-06-19 16:28:00,66.0,37.0,29.92,West,270,5.0,6.0,34,0.00,,,0.00,TxWx,2013-06-19 20:28:00,
2013-06-19 16:33:00,66.0,37.0,29.93,West,270,3.0,5.0,34,0.00,,,0.00,TxWx,2013-06-19 20:33:00,
2013-06-19 16:38:00,65.0,36.0,29.92,WSW,247,8.0,9.0,34,0.00,,,0.00,TxWx,2013-06-19 20:38:00,
2013-06-19 16:43:00,65.0,35.0,29.93,NNW,337,6.0,6.0,33,0.00,,,0.00,TxWx,2013-06-19 20:43:00,
2013-06-19 16:48:00,66.0,37.0,29.93,WSW,247,3.0,3.0,34,0.00,,,0.00,TxWx,2013-06-19 20:48:00,
2013-06-19 16:53:00,66.0,36.0,29.92,WSW,247,3.0,5.0,34,0.00,,,0.00,TxWx,2013-06-19 20:53:00,
2013-06-19 16:58:00,65.0,36.0,29.92,WNW,292,6.0,7.0,34,0.00,,,0.00,TxWx,2013-06-19 20:58:00,
2013-06-19 17:04:00,66.0,37.0,29.92,WSW,247,2.0,2.0,34,0.00,,,0.00,TxWx,2013-06-19 21:04:00,
2013-06-19 17:09:00,66.0,36.0,29.92,SW,225,5.0,6.0,33,0.00,,,0.00,TxWx,2013-06-19 21:09:00,
2013-06-19 17:14:00,66.0,36.0,29.92,NNE,22,3.0,6.0,33,0.00,,,0.00,TxWx,2013-06-19 21:14:00,
2013-06-19 17:19:00,66.0,36.0,29.92,WNW,292,10.0,10.0,33,0.00,,,0.00,TxWx,2013-06-19 21:19:00,
2013-06-19 17:24:00,66.0,36.0,29.92,SW,225,3.0,5.0,34,0.00,,,0.00,TxWx,2013-06-19 21:24:00,
2013-06-19 17:29:00,66.0,36.0,29.92,WNW,292,5.0,6.0,34,0.00,,,0.00,TxWx,2013-06-19 21:29:00,
2013-06-19 17:34:00,66.0,36.0,29.92,WNW,292,4.0,5.0,33,0.00,,,0.00,TxWx,2013-06-19 21:34:00,
2013-06-19 17:39:00,66.0,36.0,29.92,NW,315,5.0,5.0,33,0.00,,,0.00,TxWx,2013-06-19 21:39:00,
2013-06-19 17:44:00,66.0,37.0,29.92,NNW,337,5.0,6.0,34,0.00,,,0.00,TxWx,2013-06-19 21:44:00,
2013-06-19 17:49:00,66.0,37.0,29.92,NW,315,3.0,3.0,34,0.00,,,0.00,TxWx,2013-06-19 21:49:00,
2013-06-19 17:55:00,65.0,36.0,29.92,North,0,6.0,7.0,34,0.00,,,0.00,TxWx,2013-06-19 21:55:00,
2013-06-19 18:00:00,66.0,37.0,29.92,WNW,292,4.0,4.0,34,0.00,,,0.00,TxWx,2013-06-19 22:00:00,
2013-06-19 18:05:00,66.0,37.0,29.92,NNW,337,2.0,3.0,35,0.00,,,0.00,TxWx,2013-06-19 22:05:00,
2013-06-19 18:10:00,66.0,37.0,29.92,SSW,202,1.0,1.0,34,0.00,,,0.00,TxWx,2013-06-19 22:10:00,
2013-06-19 18:15:00,66.0,37.0,29.92,NNW,337,5.0,6.0,34,0.00,,,0.00,TxWx,2013-06-19 22:15:00,
2013-06-19 18:20:00,66.0,37.0,29.92,West,270,5.0,6.0,34,0.00,,,0.00,TxWx,2013-06-19 22:20:00,
2013-06-19 18:25:00,66.0,36.0,29.92,SSW,202,1.0,1.0,34,0.00,,,0.00,TxWx,2013-06-19 22:25:00,
2013-06-19 18:30:00,66.0,36.0,29.92,WNW,292,3.0,3.0,34,0.00,,,0.00,TxWx,2013-06-19 22:30:00,
2013-06-19 18:35:00,65.0,35.0,29.92,NW,315,3.0,3.0,33,0.00,,,0.00,TxWx,2013-06-19 22:35:00,
2013-06-19 18:40:00,65.0,35.0,29.93,NW,315,3.0,3.0,33,0.00,,,0.00,TxWx,2013-06-19 22:40:00,
2013-06-19 18:45:00,65.0,35.0,29.93,NNW,337,6.0,8.0,33,0.00,,,0.00,TxWx,2013-06-19 22:45:00,
2013-06-19 18:51:00,65.0,36.0,29.93,WNW,292,7.0,8.0,34,0.00,,,0.00,TxWx,2013-06-19 22:51:00,
2013-06-19 18:56:00,65.0,36.0,29.93,NW,315,5.0,5.0,34,0.00,,,0.00,TxWx,2013-06-19 22:56:00,
2013-06-19 19:01:00,64.0,35.0,29.94,WNW,292,2.0,3.0,34,0.00,,,0.00,TxWx,2013-06-19 23:01:00,
2013-06-19 19:06:00,64.0,35.0,29.94,WSW,247,5.0,6.0,34,0.00,,,0.00,TxWx,2013-06-19 23:06:00,
2013-06-19 19:11:00,64.0,35.0,29.94,NNE,22,3.0,5.0,34,0.00,,,0.00,TxWx,2013-06-19 23:11:00,
2013-06-19 19:16:00,64.0,35.0,29.94,NE,45,2.0,3.0,35,0.00,,,0.00,TxWx,2013-06-19 23:16:00,
2013-06-19 19:21:00,64.0,36.0,29.94,WSW,247,3.0,5.0,35,0.00,,,0.00,TxWx,2013-06-19 23:21:00,
2013-06-19 19:26:00,64.0,36.0,29.94,West,270,4.0,4.0,35,0.00,,,0.00,TxWx,2013-06-19 23:26:00,
2013-06-19 19:31:00,64.0,36.0,29.94,SW,225,2.0,3.0,36,0.00,,,0.00,TxWx,2013-06-19 23:31:00,
2013-06-19 19:36:00,64.0,36.0,29.94,WSW,247,2.0,3.0,36,0.00,,,0.00,TxWx,2013-06-19 23:36:00,
2013-06-19 19:42:00,63.0,36.0,29.94,WNW,292,4.0,5.0,37,0.00,,,0.00,TxWx,2013-06-19 23:42:00,
2013-06-19 19:47:00,63.0,36.0,29.95,South,180,0.0,1.0,37,0.00,,,0.00,TxWx,2013-06-19 23:47:00,
2013-06-19 19:52:00,63.0,37.0,29.95,WSW,247,2.0,2.0,38,0.00,,,0.00,TxWx,2013-06-19 23:52:00,
2013-06-19 19:57:00,63.0,37.0,29.95,West,270,2.0,3.0,38,0.00,,,0.00,TxWx,2013-06-19 23:57:00,
2013-06-19 20:02:00,62.0,37.0,29.96,SE,135,1.0,1.0,39,0.00,,,0.00,TxWx,2013-06-20 00:02:00,
2013-06-19 20:07:00,61.0,37.0,29.96,ESE,112,1.0,1.0,42,0.00,,,0.00,TxWx,2013-06-20 00:07:00,
2013-06-19 20:12:00,61.0,39.0,29.96,ESE,112,2.0,3.0,45,0.00,,,0.00,TxWx,2013-06-20 00:12:00,
2013-06-19 20:17:00,60.0,40.0,29.96,ESE,112,3.0,3.0,49,0.00,,,0.00,TxWx,2013-06-20 00:17:00,
2013-06-19 20:22:00,59.0,40.0,29.96,ENE,67,3.0,3.0,50,0.00,,,0.00,TxWx,2013-06-20 00:22:00,
2013-06-19 20:27:00,59.0,42.0,29.97,SE,135,2.0,3.0,53,0.00,,,0.00,TxWx,2013-06-20 00:27:00,
2013-06-19 20:33:00,58.0,42.0,29.96,East,90,5.0,5.0,55,0.00,,,0.00,TxWx,2013-06-20 00:33:00,
2013-06-19 20:38:00,58.0,42.0,29.97,SSE,157,2.0,3.0,56,0.00,,,0.00,TxWx,2013-06-20 00:38:00,
2013-06-19 20:43:00,57.0,41.0,29.97,NE,45,2.0,4.0,56,0.00,,,0.00,TxWx,2013-06-20 00:43:00,
2013-06-19 20:48:00,57.0,42.0,29.97,West,270,1.0,1.0,57,0.00,,,0.00,TxWx,2013-06-20 00:48:00,
2013-06-19 20:53:00,57.0,42.0,29.97,ENE,67,2.0,3.0,58,0.00,,,0.00,TxWx,2013-06-20 00:53:00,
2013-06-19 20:58:00,56.0,41.0,29.97,NW,315,1.0,2.0,58,0.00,,,0.00,TxWx,2013-06-20 00:58:00,
2013-06-19 21:03:00,56.0,42.0,29.97,SSW,202,1.0,2.0,59,0.00,,,0.00,TxWx,2013-06-20 01:03:00,
2013-06-19 21:08:00,55.0,41.0,29.98,South,180,0.0,1.0,60,0.00,,,0.00,TxWx,2013-06-20 01:08:00,
2013-06-19 21:13:00,55.0,42.0,29.98,South,180,0.0,0.0,61,0.00,,,0.00,TxWx,2013-06-20 01:13:00,
2013-06-19 21:18:00,54.0,41.0,29.98,WNW,292,3.0,3.0,63,0.00,,,0.00,TxWx,2013-06-20 01:18:00,
2013-06-19 21:24:00,53.0,41.0,29.99,SSW,202,0.0,0.0,65,0.00,,,0.00,TxWx,2013-06-20 01:24:00,
2013-06-19 21:29:00,53.0,42.0,29.99,ESE,112,2.0,2.0,65,0.00,,,0.00,TxWx,2013-06-20 01:29:00,
2013-06-19 21:34:00,52.0,41.0,29.99,South,180,0.0,0.0,67,0.00,,,0.00,TxWx,2013-06-20 01:34:00,
2013-06-19 21:39:00,52.0,42.0,29.99,South,180,0.0,0.0,68,0.00,,,0.00,TxWx,2013-06-20 01:39:00,
2013-06-19 21:44:00,51.0,41.0,29.99,SSW,202,1.0,2.0,69,0.00,,,0.00,TxWx,2013-06-20 01:44:00,
2013-06-19 21:49:00,51.0,42.0,30.00,SSE,157,1.0,2.0,71,0.00,,,0.00,TxWx,2013-06-20 01:49:00,
2013-06-19 21:54:00,51.0,42.0,30.00,SSW,202,0.0,1.0,72,0.00,,,0.00,TxWx,2013-06-20 01:54:00,
2013-06-19 21:59:00,50.0,41.0,30.00,SSW,202,0.0,0.0,72,0.00,,,0.00,TxWx,2013-06-20 01:59:00,
2013-06-19 22:04:00,50.0,42.0,30.00,West,270,1.0,1.0,73,0.00,,,0.00,TxWx,2013-06-20 02:04:00,
2013-06-19 22:09:00,50.0,42.0,30.00,South,180,0.0,0.0,74,0.00,,,0.00,TxWx,2013-06-20 02:09:00,
2013-06-19 22:14:00,49.0,41.0,30.01,SW,225,1.0,1.0,74,0.00,,,0.00,TxWx,2013-06-20 02:14:00,
2013-06-19 22:19:00,49.0,42.0,30.01,SW,225,1.0,2.0,76,0.00,,,0.00,TxWx,2013-06-20 02:19:00,
2013-06-19 22:25:00,48.0,41.0,30.01,SSW,202,1.0,1.0,77,0.00,,,0.00,TxWx,2013-06-20 02:25:00,
2013-06-19 22:30:00,48.0,41.0,30.02,SSW,202,1.0,2.0,78,0.00,,,0.00,TxWx,2013-06-20 02:30:00,
2013-06-19 22:35:00,48.0,42.0,30.02,SSW,202,1.0,1.0,80,0.00,,,0.00,TxWx,2013-06-20 02:35:00,
2013-06-19 22:40:00,48.0,42.0,30.02,South,180,0.0,0.0,80,0.00,,,0.00,TxWx,2013-06-20 02:40:00,
2013-06-19 22:45:00,47.0,41.0,30.02,SSW,202,1.0,1.0,81,0.00,,,0.00,TxWx,2013-06-20 02:45:00,
2013-06-19 22:50:00,47.0,42.0,30.02,SSW,202,1.0,2.0,82,0.00,,,0.00,TxWx,2013-06-20 02:50:00,
2013-06-19 22:55:00,47.0,42.0,30.02,SE,135,1.0,2.0,82,0.00,,,0.00,TxWx,2013-06-20 02:55:00,
2013-06-19 23:00:00,46.0,41.0,30.02,SSW,202,0.0,1.0,82,0.00,,,0.00,TxWx,2013-06-20 03:00:00,
2013-06-19 23:05:00,46.0,41.0,30.03,South,180,0.0,0.0,82,0.00,,,0.00,TxWx,2013-06-20 03:05:00,
2013-06-19 23:10:00,46.0,41.0,30.03,SSW,202,0.0,0.0,82,0.00,,,0.00,TxWx,2013-06-20 03:10:00,
2013-06-19 23:16:00,45.0,40.0,30.03,SSW,202,0.0,0.0,83,0.00,,,0.00,TxWx,2013-06-20 03:16:00,
2013-06-19 23:21:00,45.0,40.0,30.03,South,180,0.0,1.0,83,0.00,,,0.00,TxWx,2013-06-20 03:21:00,
2013-06-19 23:26:00,45.0,40.0,30.03,South,180,0.0,0.0,83,0.00,,,0.00,TxWx,2013-06-20 03:26:00,
2013-06-19 23:31:00,45.0,40.0,30.03,SSE,157,1.0,1.0,84,0.00,,,0.00,TxWx,2013-06-20 03:31:00,
2013-06-19 23:36:00,45.0,41.0,30.03,South,180,0.0,0.0,85,0.00,,,0.00,TxWx,2013-06-20 03:36:00,
2013-06-19 23:41:00,45.0,41.0,30.03,South,180,0.0,0.0,85,0.00,,,0.00,TxWx,2013-06-20 03:41:00,
2013-06-19 23:46:00,45.0,41.0,30.03,South,180,0.0,0.0,85,0.00,,,0.00,TxWx,2013-06-20 03:46:00,
2013-06-19 23:51:00,45.0,41.0,30.04,SSW,202,0.0,0.0,85,0.00,,,0.00,TxWx,2013-06-20 03:51:00,
2013-06-19 23:56:00,45.0,40.0,30.03,SSW,202,0.0,0.0,86,0.00,,,0.00,TxWx,2013-06-20 03:56:00,